Time;durP1;ratioP1;P1;durP2;ratioP2;P2;SDS_P1;SDS_P2;PMS_P1;PMS_P2;Temp;Humidity;BMP_temperature;BMP_pressure;BME280_temperature;BME280_humidity;BME280_pressure;Samples;Min_cycle;Max_cycle;Signal;HPM_P1;HPM_P2
2021/04/30 00:01:03;;;;;;;13.30;8.33;;;11.50;99.90;;;;;;4240463;27;20091;-62
2021/04/30 00:03:04;;;;;;;14.40;8.63;;;11.50;99.90;;;;;;4241464;27;20058;-62
2021/04/30 00:05:06;;;;;;;15.27;8.03;;;11.50;99.90;;;;;;4239980;27;20035;-62
2021/04/30 00:07:08;;;;;;;13.10;7.80;;;11.50;99.90;;;;;;4241432;27;20092;-62
2021/04/30 00:09:09;;;;;;;15.13;8.73;;;11.50;99.90;;;;;;4240115;27;20080;-62
2021/04/30 00:11:10;;;;;;;14.47;7.60;;;11.50;99.90;;;;;;4241411;27;20031;-63
2021/04/30 00:13:12;;;;;;;14.70;8.03;;;11.60;99.90;;;;;;4239335;27;20547;-62
2021/04/30 00:15:14;;;;;;;13.70;7.50;;;11.60;99.90;;;;;;4241529;27;20030;-63
2021/04/30 00:17:15;;;;;;;12.33;7.77;;;11.60;99.90;;;;;;4240280;27;20039;-63
2021/04/30 00:19:16;;;;;;;13.63;8.20;;;11.70;99.90;;;;;;4240671;27;20516;-63
2021/04/30 00:21:17;;;;;;;15.63;7.87;;;11.70;99.90;;;;;;4238273;27;20035;-63
2021/04/30 00:23:24;;;;;;;11.23;7.40;;;11.70;99.90;;;;;;4240992;27;20027;-62
2021/04/30 00:25:26;;;;;;;17.33;8.73;;;11.80;99.90;;;;;;4239540;27;20092;-63
2021/04/30 00:27:27;;;;;;;12.60;7.50;;;11.70;99.90;;;;;;4240283;27;20068;-62
2021/04/30 00:29:29;;;;;;;14.93;8.53;;;11.70;99.90;;;;;;4240162;27;20031;-61
2021/04/30 00:31:30;;;;;;;14.63;8.97;;;11.70;99.90;;;;;;4239755;27;20046;-64
2021/04/30 00:33:32;;;;;;;18.20;10.63;;;11.70;99.90;;;;;;4240184;27;20027;-62
2021/04/30 00:35:33;;;;;;;18.67;9.20;;;11.80;99.90;;;;;;4238981;27;20453;-63
2021/04/30 00:37:37;;;;;;;17.33;10.97;;;11.70;99.90;;;;;;4241163;27;20071;-63
2021/04/30 00:39:39;;;;;;;19.83;11.77;;;11.70;99.90;;;;;;4238839;27;20031;-63
2021/04/30 00:41:42;;;;;;;18.53;11.77;;;11.70;99.90;;;;;;4240885;27;20023;-63
2021/04/30 00:43:43;;;;;;;20.90;12.43;;;11.60;99.90;;;;;;4235231;27;20032;-62
2021/04/30 00:45:44;;;;;;;24.00;12.97;;;11.50;99.90;;;;;;4223501;28;20092;-62
2021/04/30 00:47:46;;;;;;;20.83;13.27;;;11.50;99.90;;;;;;4223518;27;20085;-62
2021/04/30 00:49:47;;;;;;;22.93;13.27;;;11.50;99.90;;;;;;4223923;28;20707;-64
2021/04/30 00:51:48;;;;;;;23.37;13.73;;;11.40;99.90;;;;;;4221843;28;20105;-63
2021/04/30 00:53:49;;;;;;;22.93;13.70;;;11.40;99.90;;;;;;4224027;28;20810;-63
2021/04/30 00:55:51;;;;;;;25.37;14.77;;;11.30;99.90;;;;;;4222387;28;20043;-62
2021/04/30 00:57:57;;;;;;;27.77;14.13;;;11.30;99.90;;;;;;4222123;28;20051;-62
2021/04/30 00:59:59;;;;;;;22.67;14.17;;;11.20;99.90;;;;;;4223067;28;20028;-62
2021/04/30 01:02:00;;;;;;;21.10;13.53;;;11.30;99.90;;;;;;4223145;28;20069;-62
2021/04/30 01:04:01;;;;;;;26.07;13.57;;;11.30;99.90;;;;;;4222584;28;20028;-63
2021/04/30 01:06:03;;;;;;;23.93;13.03;;;11.30;99.90;;;;;;4222448;28;20019;-63
2021/04/30 01:08:05;;;;;;;21.83;12.77;;;11.40;99.90;;;;;;4223077;28;20027;-65
2021/04/30 01:10:07;;;;;;;22.90;14.07;;;11.40;99.90;;;;;;4230214;27;20031;-63
2021/04/30 01:12:09;;;;;;;23.83;13.70;;;11.40;99.90;;;;;;4240259;27;20084;-63
2021/04/30 01:14:10;;;;;;;24.80;13.03;;;11.40;99.90;;;;;;4239001;27;20538;-60
2021/04/30 01:16:11;;;;;;;19.90;12.80;;;11.40;99.90;;;;;;4240466;27;20039;-62
2021/04/30 01:18:13;;;;;;;19.97;12.57;;;11.40;99.90;;;;;;4238944;27;20534;-63
2021/04/30 01:20:15;;;;;;;25.90;13.77;;;11.40;99.90;;;;;;4240907;27;20092;-63
2021/04/30 01:22:38;;;;;;;21.73;13.43;;;11.40;99.90;;;;;;4238753;27;20080;-63
2021/04/30 01:24:40;;;;;;;24.17;13.00;;;11.50;99.90;;;;;;4240707;27;20171;-63
2021/04/30 01:26:43;;;;;;;23.20;13.17;;;11.40;99.90;;;;;;4238925;27;20092;-62
2021/04/30 01:28:45;;;;;;;20.47;12.60;;;11.40;99.90;;;;;;4240671;27;20036;-63
2021/04/30 01:30:46;;;;;;;26.80;14.53;;;11.40;99.90;;;;;;4239134;27;20027;-63
2021/04/30 01:32:48;;;;;;;23.67;13.70;;;11.40;99.90;;;;;;4240686;28;20031;-63
2021/04/30 01:34:49;;;;;;;23.50;13.27;;;11.40;99.90;;;;;;4237330;28;20440;-63
2021/04/30 01:36:50;;;;;;;24.90;13.17;;;11.40;99.90;;;;;;4224766;27;20047;-63
2021/04/30 01:38:53;;;;;;;19.90;12.43;;;11.40;99.90;;;;;;4222140;28;20479;-64
2021/04/30 01:40:54;;;;;;;23.03;11.83;;;11.40;99.90;;;;;;4222342;28;20069;-65
2021/04/30 01:43:08;;;;;;;23.93;12.57;;;11.40;99.90;;;;;;4222100;28;20421;-63
2021/04/30 01:45:10;;;;;;;22.30;13.70;;;11.40;99.90;;;;;;4222399;28;20364;-64
2021/04/30 01:47:11;;;;;;;21.03;12.50;;;11.40;99.90;;;;;;4224321;28;20116;-64
2021/04/30 01:49:12;;;;;;;21.17;12.77;;;11.30;99.90;;;;;;4224137;28;20032;-63
2021/04/30 01:51:13;;;;;;;30.23;14.37;;;11.30;99.90;;;;;;4226567;28;20024;-63
2021/04/30 01:53:23;;;;;;;20.00;12.67;;;11.30;99.90;;;;;;4224318;28;20055;-64
2021/04/30 01:55:26;;;;;;;18.35;12.30;;;11.20;99.90;;;;;;4224884;28;20096;-63
2021/04/30 01:57:27;;;;;;;22.43;12.63;;;11.20;99.90;;;;;;4225258;28;20478;-63
2021/04/30 01:59:28;;;;;;;24.33;13.30;;;11.20;99.90;;;;;;4225388;28;20036;-63
2021/04/30 02:01:30;;;;;;;23.20;13.60;;;11.30;99.90;;;;;;4230493;27;20429;-64
2021/04/30 02:03:31;;;;;;;21.47;12.43;;;11.30;99.90;;;;;;4243578;27;20474;-63
2021/04/30 02:05:33;;;;;;;20.50;12.67;;;11.30;99.90;;;;;;4242043;27;20080;-62
2021/04/30 02:07:34;;;;;;;23.63;12.70;;;11.30;99.90;;;;;;4242995;27;20092;-63
2021/04/30 02:09:35;;;;;;;21.33;12.33;;;11.30;99.90;;;;;;4241816;27;20091;-63
2021/04/30 02:11:36;;;;;;;19.73;11.97;;;11.30;99.90;;;;;;4242973;27;20039;-66
2021/04/30 02:13:37;;;;;;;19.57;12.67;;;11.30;99.90;;;;;;4241918;27;20036;-64
2021/04/30 02:15:44;;;;;;;21.13;12.33;;;11.30;99.90;;;;;;4242849;27;20023;-62
2021/04/30 02:17:45;;;;;;;18.03;10.37;;;11.40;99.90;;;;;;4241919;27;20076;-64
2021/04/30 02:19:46;;;;;;;14.77;9.73;;;11.40;99.90;;;;;;4242504;27;20031;-63
2021/04/30 02:21:47;;;;;;;18.50;10.40;;;11.30;99.90;;;;;;4242123;27;20510;-63
2021/04/30 02:23:48;;;;;;;18.80;11.47;;;11.20;99.90;;;;;;4240909;27;20039;-63
2021/04/30 02:25:50;;;;;;;24.00;12.40;;;11.00;99.90;;;;;;4242134;27;20494;-63
2021/04/30 02:27:54;;;;;;;27.73;11.93;;;10.90;99.90;;;;;;4231788;27;20561;-67
2021/04/30 02:29:55;;;;;;;20.50;11.40;;;10.80;99.90;;;;;;4226450;28;20028;-63
2021/04/30 02:31:56;;;;;;;21.47;11.93;;;10.80;99.90;;;;;;4223075;28;20534;-62
2021/04/30 02:33:57;;;;;;;19.80;11.83;;;10.70;99.90;;;;;;4226083;28;20027;-63
2021/04/30 02:35:58;;;;;;;16.43;11.03;;;10.70;99.90;;;;;;4224744;28;21051;-63
2021/04/30 02:38:00;;;;;;;18.80;10.87;;;10.60;99.90;;;;;;4225900;28;20035;-64
2021/04/30 02:40:02;;;;;;;20.10;10.80;;;10.60;99.90;;;;;;4223890;28;20027;-62
2021/04/30 02:42:04;;;;;;;18.47;11.53;;;10.60;99.90;;;;;;4226259;28;20476;-62
2021/04/30 02:44:05;;;;;;;16.97;10.23;;;10.50;99.90;;;;;;4224150;28;20093;-64
2021/04/30 02:46:07;;;;;;;16.47;11.17;;;10.60;99.90;;;;;;4226139;28;20113;-63
2021/04/30 02:48:13;;;;;;;21.20;11.90;;;10.60;99.90;;;;;;4224102;28;20027;-63
2021/04/30 02:50:16;;;;;;;19.20;10.73;;;10.60;99.90;;;;;;4225829;28;20541;-63
2021/04/30 02:52:17;;;;;;;22.13;13.03;;;10.60;99.90;;;;;;4224049;28;20048;-64
2021/04/30 02:54:19;;;;;;;28.37;12.17;;;10.60;99.90;;;;;;4236712;28;20596;-63
2021/04/30 02:56:20;;;;;;;35.20;19.30;;;10.60;99.90;;;;;;4240929;28;20066;-61
2021/04/30 02:58:22;;;;;;;40.07;20.87;;;10.50;99.90;;;;;;4239757;27;20023;-63
2021/04/30 03:00:25;;;;;;;28.37;15.17;;;10.40;99.90;;;;;;4242166;28;20023;-69
2021/04/30 03:02:26;;;;;;;24.27;14.07;;;10.40;99.90;;;;;;4239645;28;20023;-63
2021/04/30 03:04:28;;;;;;;27.07;14.80;;;10.40;99.90;;;;;;4241783;27;20031;-63
2021/04/30 03:06:29;;;;;;;27.87;16.70;;;10.40;99.90;;;;;;4240334;27;20039;-64
2021/04/30 03:08:30;;;;;;;27.80;15.77;;;10.40;99.90;;;;;;4241328;28;20072;-63
2021/04/30 03:10:32;;;;;;;27.40;15.90;;;10.50;99.90;;;;;;4239963;28;20869;-62
2021/04/30 03:12:33;;;;;;;25.20;16.33;;;10.40;99.90;;;;;;4241130;28;20039;-64
2021/04/30 03:14:34;;;;;;;32.00;16.27;;;10.50;99.90;;;;;;4239669;27;20043;-63
2021/04/30 03:16:35;;;;;;;29.87;17.80;;;10.50;99.90;;;;;;4241164;27;20117;-65
2021/04/30 03:18:37;;;;;;;27.23;15.43;;;10.50;99.90;;;;;;4237976;28;20561;-64
2021/04/30 03:20:38;;;;;;;26.53;15.33;;;10.60;99.90;;;;;;4224194;28;20036;-64
2021/04/30 03:22:39;;;;;;;30.97;17.40;;;10.60;99.90;;;;;;4222524;28;20549;-68
2021/04/30 03:24:40;;;;;;;28.43;17.27;;;10.70;99.90;;;;;;4223476;28;20497;-64
2021/04/30 03:26:41;;;;;;;32.73;17.17;;;10.70;99.90;;;;;;4223178;28;20035;-64
2021/04/30 03:28:42;;;;;;;28.93;17.13;;;10.80;99.90;;;;;;4223148;28;20077;-63
2021/04/30 03:30:44;;;;;;;30.97;17.50;;;10.80;99.90;;;;;;4224677;28;20031;-71
2021/04/30 03:32:45;;;;;;;31.00;16.03;;;10.90;99.90;;;;;;4222960;28;20093;-64
2021/04/30 03:34:46;;;;;;;28.17;16.07;;;10.90;99.90;;;;;;4222629;28;20483;-64
2021/04/30 03:36:48;;;;;;;28.67;14.47;;;10.90;99.90;;;;;;4222787;28;20035;-64
2021/04/30 03:38:50;;;;;;;18.73;12.03;;;10.90;99.90;;;;;;4224084;28;20024;-64
2021/04/30 03:40:51;;;;;;;20.33;11.17;;;11.00;99.90;;;;;;4222109;28;20434;-64
2021/04/30 03:42:52;;;;;;;18.03;9.27;;;11.00;99.90;;;;;;4224015;28;20085;-64
2021/04/30 03:44:53;;;;;;;13.73;8.47;;;11.00;99.90;;;;;;4228213;28;20434;-65
2021/04/30 03:46:54;;;;;;;15.23;8.30;;;11.10;99.90;;;;;;4240978;28;20035;-65
2021/04/30 03:48:55;;;;;;;10.13;6.63;;;11.10;99.90;;;;;;4237723;28;20405;-64
2021/04/30 03:50:57;;;;;;;11.93;6.40;;;11.10;99.90;;;;;;4240596;28;20031;-64
2021/04/30 03:52:58;;;;;;;10.70;6.80;;;11.10;99.90;;;;;;4215572;27;671129;-65
2021/04/30 03:54:59;;;;;;;10.00;5.60;;;11.10;99.90;;;;;;4240739;27;20828;-64
2021/04/30 03:57:01;;;;;;;11.40;5.97;;;11.10;99.90;;;;;;4240846;27;20031;-64
2021/04/30 03:59:02;;;;;;;9.80;6.40;;;11.10;99.90;;;;;;4239868;27;20076;-66
2021/04/30 04:01:05;;;;;;;10.97;5.83;;;11.00;99.90;;;;;;4239907;27;20068;-66
2021/04/30 04:03:07;;;;;;;11.27;6.60;;;11.00;99.90;;;;;;4239962;27;20140;-64
2021/04/30 04:05:08;;;;;;;15.73;9.03;;;11.00;99.90;;;;;;4241737;27;20056;-64
2021/04/30 04:07:09;;;;;;;14.90;8.03;;;11.00;99.90;;;;;;4240063;27;20068;-65
2021/04/30 04:09:11;;;;;;;15.17;9.60;;;11.00;99.90;;;;;;4239553;27;20035;-64
2021/04/30 04:11:12;;;;;;;18.97;9.70;;;11.00;99.90;;;;;;4229231;27;20880;-68
2021/04/30 04:13:18;;;;;;;16.83;8.00;;;10.90;99.90;;;;;;4224165;28;20446;-65
2021/04/30 04:15:20;;;;;;;15.50;9.63;;;10.80;99.90;;;;;;4222548;28;20105;-64
2021/04/30 04:17:21;;;;;;;17.10;9.57;;;10.80;99.90;;;;;;4224087;28;20452;-62
2021/04/30 04:19:22;;;;;;;16.43;9.27;;;10.70;99.90;;;;;;4222709;28;20092;-64
2021/04/30 04:21:23;;;;;;;15.17;8.63;;;10.70;99.90;;;;;;4223539;28;20044;-64
2021/04/30 04:23:24;;;;;;;15.73;9.27;;;10.70;99.90;;;;;;4222346;28;20092;-64
2021/04/30 04:25:26;;;;;;;15.27;9.57;;;10.80;99.90;;;;;;4223512;28;20426;-63
2021/04/30 04:27:27;;;;;;;22.47;9.20;;;10.70;99.90;;;;;;4223104;28;20480;-64
2021/04/30 04:29:28;;;;;;;18.60;10.10;;;10.80;99.90;;;;;;4222962;28;20035;-68
2021/04/30 04:31:29;;;;;;;18.83;11.53;;;10.80;99.90;;;;;;4223482;28;20542;-64
2021/04/30 04:33:31;;;;;;;15.07;10.33;;;10.80;99.90;;;;;;4222421;28;20112;-64
2021/04/30 04:35:33;;;;;;;17.17;10.80;;;10.90;99.90;;;;;;4223661;28;20801;-64
2021/04/30 04:37:35;;;;;;;19.03;10.67;;;10.90;99.90;;;;;;4222012;28;20027;-62
2021/04/30 04:39:36;;;;;;;17.87;9.73;;;11.00;99.90;;;;;;4237962;27;20068;-64
2021/04/30 04:41:38;;;;;;;17.17;10.90;;;11.00;99.90;;;;;;4238939;27;20031;-63
2021/04/30 04:43:39;;;;;;;20.07;11.27;;;11.10;99.90;;;;;;4241032;27;20483;-64
2021/04/30 04:45:40;;;;;;;23.83;13.47;;;11.10;99.90;;;;;;4237235;27;20080;-63
2021/04/30 04:47:42;;;;;;;19.23;13.07;;;11.20;99.90;;;;;;4240489;27;20043;-64
2021/04/30 04:49:43;;;;;;;23.83;13.20;;;11.20;99.90;;;;;;4238860;27;20531;-63
2021/04/30 04:51:44;;;;;;;23.30;12.30;;;11.30;99.90;;;;;;4240718;27;20039;-64
2021/04/30 04:53:46;;;;;;;23.80;12.43;;;11.30;99.90;;;;;;4237199;27;20043;-63
2021/04/30 04:55:47;;;;;;;20.33;12.13;;;11.40;99.90;;;;;;4239539;27;20035;-64
2021/04/30 04:57:48;;;;;;;21.33;15.03;;;11.40;99.90;;;;;;4238892;27;20080;-64
2021/04/30 04:59:49;;;;;;;22.13;13.67;;;11.50;99.90;;;;;;4239882;27;20104;-67
2021/04/30 05:01:50;;;;;;;21.07;13.63;;;11.50;99.90;;;;;;4238727;27;20035;-64
2021/04/30 05:03:52;;;;;;;22.50;12.87;;;11.50;99.90;;;;;;4238768;27;20432;-64
2021/04/30 05:05:54;;;;;;;22.33;13.07;;;11.60;99.90;;;;;;4239242;27;20482;-63
2021/04/30 05:07:55;;;;;;;19.20;11.47;;;11.70;99.90;;;;;;4221101;28;20039;-66
2021/04/30 05:09:56;;;;;;;18.73;10.77;;;11.70;99.90;;;;;;4222399;28;20852;-71
2021/04/30 05:11:57;;;;;;;18.13;10.40;;;11.70;99.90;;;;;;4220916;28;20032;-63
2021/04/30 05:13:58;;;;;;;18.60;11.07;;;11.80;99.90;;;;;;4222671;28;20039;-64
2021/04/30 05:16:00;;;;;;;20.33;11.17;;;11.80;99.90;;;;;;4221123;28;20019;-64
2021/04/30 05:18:01;;;;;;;19.13;10.90;;;11.90;99.90;;;;;;4222487;28;20128;-65
2021/04/30 05:20:03;;;;;;;18.17;10.20;;;12.00;99.90;;;;;;4221282;28;20397;-64
2021/04/30 05:22:14;;;;;;;20.17;10.43;;;12.10;99.90;;;;;;4222518;27;20449;-64
2021/04/30 05:24:15;;;;;;;19.37;10.37;;;12.20;99.90;;;;;;4221152;28;20544;-64
2021/04/30 05:26:17;;;;;;;22.23;11.40;;;12.20;99.90;;;;;;4222759;28;20036;-63
2021/04/30 05:28:18;;;;;;;13.77;9.50;;;12.20;99.90;;;;;;4221388;28;20028;-63
2021/04/30 05:30:19;;;;;;;20.00;11.23;;;12.10;99.90;;;;;;4222360;28;20114;-64
2021/04/30 05:32:20;;;;;;;17.50;10.80;;;12.10;99.90;;;;;;4221046;28;20064;-63
2021/04/30 05:34:21;;;;;;;16.80;11.13;;;12.20;99.90;;;;;;4222645;28;20104;-67
2021/04/30 05:36:23;;;;;;;21.60;12.20;;;12.10;99.90;;;;;;4221392;28;20044;-63
2021/04/30 05:38:24;;;;;;;19.67;12.07;;;12.10;99.90;;;;;;4203207;28;20032;-64
2021/04/30 05:40:26;;;;;;;18.00;11.97;;;12.10;99.90;;;;;;4222518;28;20028;-64
2021/04/30 05:42:27;;;;;;;18.53;11.97;;;12.10;99.90;;;;;;4221501;28;20077;-63
2021/04/30 05:44:29;;;;;;;17.63;12.87;;;12.20;99.90;;;;;;4222210;28;20048;-63
2021/04/30 05:46:31;;;;;;;19.33;11.20;;;12.40;99.90;;;;;;4221143;28;20028;-64
2021/04/30 05:48:32;;;;;;;20.60;12.33;;;12.50;99.90;;;;;;4222582;28;20027;-65
2021/04/30 05:50:34;;;;;;;16.50;9.90;;;12.60;99.90;;;;;;4221572;28;20524;-63
2021/04/30 05:52:35;;;;;;;16.73;11.07;;;12.70;99.90;;;;;;4222149;28;20040;-64
2021/04/30 05:54:36;;;;;;;17.13;10.53;;;12.80;99.90;;;;;;4221342;28;20028;-62
2021/04/30 05:56:37;;;;;;;16.63;10.23;;;12.90;99.90;;;;;;4222827;28;20040;-64
2021/04/30 05:58:39;;;;;;;24.03;11.03;;;13.00;99.90;;;;;;4220908;28;20151;-64
2021/04/30 06:00:40;;;;;;;16.97;11.20;;;12.90;99.90;;;;;;4223213;28;20487;-65
2021/04/30 06:02:41;;;;;;;15.60;11.17;;;13.00;99.90;;;;;;4221256;28;20027;-63
2021/04/30 06:04:42;;;;;;;16.80;10.83;;;13.10;99.90;;;;;;4221887;28;20052;-64
2021/04/30 06:06:49;;;;;;;23.93;12.77;;;13.10;99.90;;;;;;4221602;28;20102;-63
2021/04/30 06:08:50;;;;;;;19.60;10.30;;;13.10;99.90;;;;;;4221489;28;20023;-66
2021/04/30 06:10:52;;;;;;;17.33;12.00;;;13.10;99.90;;;;;;4225551;28;20661;-63
2021/04/30 06:12:53;;;;;;;20.93;12.10;;;13.10;99.90;;;;;;4226060;28;20064;-69
2021/04/30 06:14:54;;;;;;;19.23;11.00;;;13.20;99.90;;;;;;4239055;27;20043;-68
2021/04/30 06:16:55;;;;;;;17.97;10.87;;;13.30;99.90;;;;;;4238096;28;20087;-66
2021/04/30 06:18:56;;;;;;;15.07;10.67;;;13.40;99.90;;;;;;4230860;27;20087;-64
2021/04/30 06:20:58;;;;;;;15.97;10.87;;;13.40;99.90;;;;;;4222198;28;20078;-62
2021/04/30 06:22:59;;;;;;;15.87;10.93;;;13.40;99.90;;;;;;4222510;28;20036;-63
2021/04/30 06:25:00;;;;;;;14.73;10.43;;;13.30;99.90;;;;;;4220849;28;20084;-71
2021/04/30 06:27:01;;;;;;;19.13;10.53;;;13.30;99.90;;;;;;4226356;28;20479;-62
2021/04/30 06:29:03;;;;;;;17.33;9.93;;;13.20;99.90;;;;;;4227486;27;20081;-64
2021/04/30 06:31:04;;;;;;;16.27;10.23;;;13.20;99.90;;;;;;4225492;28;20063;-64
2021/04/30 06:33:09;;;;;;;19.00;11.10;;;13.20;99.90;;;;;;4229139;27;20039;-64
2021/04/30 06:35:11;;;;;;;17.20;10.97;;;13.30;99.90;;;;;;4231411;27;20035;-71
2021/04/30 06:37:12;;;;;;;16.10;10.53;;;13.30;99.90;;;;;;4225173;27;20612;-63
2021/04/30 06:39:15;;;;;;;18.87;11.37;;;13.30;99.90;;;;;;4224266;27;20032;-64
2021/04/30 06:41:16;;;;;;;13.67;9.67;;;13.30;99.90;;;;;;4224436;28;20039;-66
2021/04/30 06:43:17;;;;;;;17.43;11.10;;;13.30;99.90;;;;;;4229727;27;20036;-63
2021/04/30 06:45:18;;;;;;;14.43;9.97;;;13.30;99.90;;;;;;4224244;28;20019;-63
2021/04/30 06:47:20;;;;;;;15.37;9.33;;;13.30;99.90;;;;;;4223704;28;20156;-63
2021/04/30 06:49:21;;;;;;;21.47;9.80;;;13.30;99.90;;;;;;4237337;27;20042;-63
2021/04/30 06:51:22;;;;;;;13.70;9.90;;;13.30;99.90;;;;;;4239944;27;20038;-63
2021/04/30 06:53:23;;;;;;;17.57;10.57;;;13.30;99.90;;;;;;4241700;27;20043;-64
2021/04/30 06:55:24;;;;;;;16.60;10.87;;;13.30;99.90;;;;;;4238320;27;20039;-65
2021/04/30 06:57:27;;;;;;;15.40;10.17;;;13.30;99.90;;;;;;4233884;27;20035;-68
2021/04/30 06:59:28;;;;;;;14.50;9.37;;;13.30;99.90;;;;;;4226387;27;20039;-63
2021/04/30 07:01:29;;;;;;;15.37;10.27;;;13.30;99.90;;;;;;4235103;27;20131;-65
2021/04/30 07:03:30;;;;;;;20.23;12.63;;;13.30;99.90;;;;;;4238687;27;20502;-74
2021/04/30 07:05:31;;;;;;;12.60;8.77;;;13.40;99.90;;;;;;4241357;27;20084;-64
2021/04/30 07:07:33;;;;;;;13.23;9.17;;;13.40;99.90;;;;;;4240483;27;20023;-73
2021/04/30 07:09:35;;;;;;;12.57;9.43;;;13.40;99.90;;;;;;4234055;27;20039;-63
2021/04/30 07:11:36;;;;;;;15.03;8.70;;;13.40;99.90;;;;;;4224269;27;20053;-71
2021/04/30 07:13:37;;;;;;;17.30;10.20;;;13.40;99.90;;;;;;4238649;27;20043;-71
2021/04/30 07:15:39;;;;;;;21.50;12.43;;;13.40;99.90;;;;;;4240224;27;20023;-66
2021/04/30 07:17:40;;;;;;;14.33;9.33;;;13.50;99.90;;;;;;4224666;27;20028;-65
2021/04/30 07:19:41;;;;;;;26.50;17.53;;;13.50;99.90;;;;;;4222967;28;20064;-66
2021/04/30 07:21:42;;;;;;;38.17;27.97;;;13.50;99.90;;;;;;4222774;28;20036;-68
2021/04/30 07:23:44;;;;;;;54.20;37.60;;;13.50;99.90;;;;;;4224147;28;20447;-63
2021/04/30 07:25:45;;;;;;;47.40;35.67;;;13.40;99.90;;;;;;4222637;28;20032;-63
2021/04/30 07:27:46;;;;;;;37.57;25.77;;;13.40;99.90;;;;;;4225063;28;20477;-63
2021/04/30 07:29:47;;;;;;;18.50;12.40;;;13.40;99.90;;;;;;4222543;28;20040;-63
2021/04/30 07:31:49;;;;;;;26.47;15.50;;;13.40;99.90;;;;;;4224448;28;20052;-62
2021/04/30 07:33:50;;;;;;;19.00;13.03;;;13.40;99.90;;;;;;4222500;27;20409;-65
2021/04/30 07:35:51;;;;;;;21.27;13.27;;;13.40;99.90;;;;;;4225282;27;20080;-72
2021/04/30 07:37:52;;;;;;;18.30;11.50;;;13.50;99.90;;;;;;4222561;28;20020;-62
2021/04/30 07:39:53;;;;;;;19.40;10.60;;;13.50;99.90;;;;;;4223043;28;20031;-63
2021/04/30 07:41:54;;;;;;;16.40;11.10;;;13.50;99.90;;;;;;4223054;28;20088;-64
2021/04/30 07:43:56;;;;;;;15.30;9.77;;;13.50;99.90;;;;;;4223051;27;20050;-63
2021/04/30 07:45:59;;;;;;;15.57;9.93;;;13.60;99.90;;;;;;4222981;28;20483;-63
2021/04/30 07:48:00;;;;;;;18.07;11.63;;;13.60;99.90;;;;;;4222740;28;20019;-63
2021/04/30 07:50:02;;;;;;;19.40;12.57;;;13.60;99.90;;;;;;4223807;28;20028;-61
2021/04/30 07:52:04;;;;;;;16.73;11.53;;;13.70;99.90;;;;;;4222064;28;20061;-61
2021/04/30 07:54:06;;;;;;;17.00;11.60;;;13.80;99.90;;;;;;4223716;28;20052;-64
2021/04/30 07:56:07;;;;;;;27.97;13.97;;;13.90;99.90;;;;;;4221808;28;20076;-64
2021/04/30 07:58:08;;;;;;;20.17;12.43;;;13.90;99.90;;;;;;4232698;27;20092;-63
2021/04/30 08:00:10;;;;;;;16.17;10.67;;;13.90;99.90;;;;;;4238053;27;20627;-61
2021/04/30 08:02:11;;;;;;;13.80;9.90;;;13.90;99.90;;;;;;4240872;27;20505;-62
2021/04/30 08:04:12;;;;;;;18.40;10.27;;;13.80;99.90;;;;;;4238679;27;20027;-61
2021/04/30 08:06:13;;;;;;;19.80;10.13;;;13.80;99.90;;;;;;4240545;27;20504;-61
2021/04/30 08:08:15;;;;;;;18.50;10.50;;;13.70;99.90;;;;;;4239433;27;20060;-61
2021/04/30 08:10:16;;;;;;;21.27;10.37;;;13.70;99.90;;;;;;4240035;27;20424;-62
2021/04/30 08:12:17;;;;;;;13.97;9.53;;;13.80;99.90;;;;;;4237748;27;20088;-60
2021/04/30 08:14:19;;;;;;;12.80;9.27;;;13.80;99.90;;;;;;4235383;27;20112;-61
2021/04/30 08:16:20;;;;;;;12.97;8.63;;;13.90;99.90;;;;;;4236871;27;20554;-62
2021/04/30 08:18:22;;;;;;;14.07;8.83;;;13.90;99.90;;;;;;4237266;27;20026;-61
2021/04/30 08:20:23;;;;;;;14.10;8.10;;;14.10;99.90;;;;;;4240531;27;20034;-60
2021/04/30 08:22:27;;;;;;;17.60;8.73;;;14.20;99.90;;;;;;4238581;27;20035;-64
2021/04/30 08:24:29;;;;;;;11.40;9.13;;;14.30;99.90;;;;;;4228737;27;20566;-63
2021/04/30 08:26:30;;;;;;;15.80;9.07;;;14.40;99.90;;;;;;4222585;27;20779;-60
2021/04/30 08:28:32;;;;;;;12.93;8.47;;;14.50;99.90;;;;;;4224747;27;20032;-64
2021/04/30 08:30:33;;;;;;;11.07;7.73;;;14.70;99.90;;;;;;4221686;28;20031;-64
2021/04/30 08:32:34;;;;;;;10.93;8.17;;;14.70;99.90;;;;;;4223643;27;20097;-60
2021/04/30 08:34:35;;;;;;;13.13;8.70;;;14.70;99.90;;;;;;4221456;28;20057;-62
2021/04/30 08:36:36;;;;;;;16.03;8.83;;;14.70;99.90;;;;;;4226679;27;20093;-67
2021/04/30 08:38:38;;;;;;;12.37;7.20;;;14.80;99.90;;;;;;4230600;27;20036;-70
2021/04/30 08:40:39;;;;;;;13.50;8.03;;;15.00;99.90;;;;;;4233784;27;20047;-75
2021/04/30 08:42:40;;;;;;;10.70;7.33;;;15.10;99.90;;;;;;4239291;27;20027;-65
2021/04/30 08:44:42;;;;;;;9.80;7.07;;;15.20;99.90;;;;;;4238077;27;20132;-64
2021/04/30 08:46:44;;;;;;;10.77;7.27;;;15.30;99.90;;;;;;4223512;28;20027;-63
2021/04/30 08:48:45;;;;;;;16.93;8.27;;;15.40;99.90;;;;;;4221559;28;20027;-70
2021/04/30 08:50:47;;;;;;;12.10;9.93;;;15.50;99.90;;;;;;4223582;27;20533;-67
2021/04/30 08:52:48;;;;;;;19.60;11.57;;;15.50;99.90;;;;;;4230491;27;20039;-63
2021/04/30 08:54:54;;;;;;;17.70;11.97;;;15.50;99.90;;;;;;4228713;27;20043;-65
2021/04/30 08:57:00;;;;;;;21.70;17.27;;;15.50;99.90;;;;;;4233551;27;20104;-64
2021/04/30 08:59:02;;;;;;;18.55;13.70;;;15.70;99.90;;;;;;4233462;27;20479;-65
2021/04/30 09:01:04;;;;;;;19.67;12.87;;;15.80;99.90;;;;;;4238759;27;20072;-63
2021/04/30 09:03:09;;;;;;;22.42;14.80;;;15.90;99.90;;;;;;4240121;27;20046;-63
2021/04/30 09:05:12;;;;;;;16.50;11.30;;;16.00;99.90;;;;;;4232965;27;20409;-65
2021/04/30 09:07:16;;;;;;;11.90;7.82;;;16.20;99.90;;;;;;4239118;27;20035;-66
2021/04/30 09:09:19;;;;;;;6.80;4.80;;;16.30;99.90;;;;;;4238142;27;20059;-69
2021/04/30 09:11:32;;;;;;;10.77;6.30;;;16.50;99.90;;;;;;4239118;27;20486;-62
2021/04/30 09:13:33;;;;;;;10.10;6.85;;;16.40;99.90;;;;;;4238284;27;20119;-65
2021/04/30 09:15:35;;;;;;;12.20;5.72;;;16.50;99.90;;;;;;4239102;27;20058;-59
2021/04/30 09:17:37;;;;;;;12.82;6.20;;;16.50;99.90;;;;;;4238789;27;20060;-62
2021/04/30 09:19:39;;;;;;;9.40;5.43;;;16.50;99.90;;;;;;4239048;27;20072;-63
2021/04/30 09:22:05;;;;;;;18.60;11.98;;;16.60;99.90;;;;;;4238673;27;20043;-62
2021/04/30 09:24:08;;;;;;;23.00;13.73;;;16.70;99.90;;;;;;4239361;27;20042;-62
2021/04/30 09:26:29;;;;;;;8.13;5.68;;;16.70;99.90;;;;;;4238209;27;20704;-66
2021/04/30 09:28:30;;;;;;;5.82;4.25;;;16.80;99.90;;;;;;4239327;27;20389;-62
2021/04/30 09:30:32;;;;;;;6.25;5.03;;;16.90;99.90;;;;;;4238221;27;20027;-64
2021/04/30 09:32:33;;;;;;;9.73;5.03;;;16.90;99.90;;;;;;4239292;27;20072;-72
2021/04/30 09:34:36;;;;;;;8.02;5.20;;;16.90;99.90;;;;;;4237118;28;20495;-64
2021/04/30 09:37:17;;;;;;;11.77;4.50;;;16.70;99.90;;;;;;4238598;27;20051;-64
2021/04/30 09:39:18;;;;;;;8.82;5.32;;;16.70;99.90;;;;;;4238020;27;20031;-64
2021/04/30 09:41:19;;;;;;;8.75;5.15;;;16.60;99.90;;;;;;4235157;27;20437;-62
2021/04/30 09:43:20;;;;;;;8.90;4.53;;;16.50;99.90;;;;;;4238211;28;20045;-62
2021/04/30 09:45:24;;;;;;;5.68;4.25;;;16.50;99.90;;;;;;4238880;28;20035;-61
2021/04/30 09:47:30;;;;;;;5.05;4.20;;;16.40;99.90;;;;;;4239149;28;20076;-61
2021/04/30 09:49:33;;;;;;;7.75;4.25;;;16.20;99.90;;;;;;4238718;27;20065;-64
2021/04/30 09:51:51;;;;;;;8.10;5.20;;;16.10;99.90;;;;;;4238073;28;20043;-62
2021/04/30 09:53:52;;;;;;;5.80;4.70;;;16.00;99.90;;;;;;4238562;28;20095;-62
2021/04/30 09:55:54;;;;;;;7.65;4.97;;;15.90;99.90;;;;;;4239284;28;20024;-62
2021/04/30 09:57:55;;;;;;;9.95;4.85;;;15.90;99.90;;;;;;4238495;28;20147;-62
2021/04/30 10:00:10;;;;;;;9.13;5.22;;;15.90;99.90;;;;;;4238754;28;20400;-61
2021/04/30 10:02:16;;;;;;;6.68;3.80;;;15.90;99.90;;;;;;4238281;28;20438;-63
2021/04/30 10:04:24;;;;;;;7.70;4.38;;;15.90;99.90;;;;;;4233612;28;20020;-61
2021/04/30 10:06:26;;;;;;;7.25;4.93;;;15.90;99.90;;;;;;4220973;28;20028;-65
2021/04/30 10:08:27;;;;;;;8.65;4.50;;;15.90;99.90;;;;;;4224292;28;20864;-70
2021/04/30 10:10:29;;;;;;;6.85;5.18;;;15.80;99.90;;;;;;4224020;28;20453;-65
2021/04/30 10:12:31;;;;;;;5.22;3.67;;;15.80;99.90;;;;;;4225728;28;20080;-63
2021/04/30 10:14:32;;;;;;;6.95;5.07;;;15.90;99.90;;;;;;4229579;27;20088;-63
2021/04/30 10:16:33;;;;;;;6.20;4.40;;;15.90;99.90;;;;;;4243048;27;20031;-63
2021/04/30 10:18:34;;;;;;;7.90;4.53;;;16.00;99.90;;;;;;4241071;27;20479;-63
2021/04/30 10:20:35;;;;;;;7.68;4.35;;;16.10;99.90;;;;;;4242584;27;20030;-64
2021/04/30 10:22:39;;;;;;;7.05;5.30;;;16.20;99.90;;;;;;4240936;27;20567;-63